createdAt,value
2019-03-24T00:01:42.610Z,27.95
2019-03-24T00:04:11.119Z,31.68
2019-03-24T00:06:39.560Z,28.10
2019-03-24T00:09:08.642Z,26.02
2019-03-24T00:11:37.070Z,33.53
2019-03-24T00:14:06.061Z,26.97
2019-03-24T00:16:34.501Z,29.35
2019-03-24T00:19:02.926Z,27.13
2019-03-24T00:21:32.895Z,31.05
2019-03-24T00:24:01.356Z,31.40
2019-03-24T00:26:29.790Z,33.18
2019-03-24T00:28:58.242Z,35.30
2019-03-24T00:31:26.698Z,39.67
2019-03-24T00:33:55.133Z,40.52
2019-03-24T00:36:23.598Z,36.73
2019-03-24T00:38:52.170Z,34.58
2019-03-24T00:41:20.623Z,39.67
2019-03-24T00:43:49.100Z,31.97
2019-03-24T00:46:17.591Z,35.55
2019-03-24T00:48:46.039Z,34.05
2019-03-24T00:51:14.561Z,37.75
2019-03-24T00:53:43.032Z,38.02
2019-03-24T00:56:11.514Z,36.83
2019-03-24T00:58:39.983Z,33.40
2019-03-24T01:01:09.109Z,34.65
2019-03-24T01:03:37.625Z,33.75
2019-03-24T01:06:06.209Z,31.25
2019-03-24T01:08:34.647Z,32.25
2019-03-24T01:11:03.070Z,33.18
2019-03-24T01:13:31.502Z,29.63
2019-03-24T01:16:02.055Z,29.82
2019-03-24T01:18:30.489Z,28.95
2019-03-24T01:20:58.938Z,36.30
2019-03-24T01:23:28.534Z,37.25
2019-03-24T01:25:56.999Z,37.30
2019-03-24T01:28:25.413Z,35.98
2019-03-24T01:30:53.842Z,37.85
2019-03-24T01:33:22.282Z,36.33
2019-03-24T01:35:50.734Z,36.23
2019-03-24T01:38:19.185Z,42.48
2019-03-24T01:40:47.593Z,37.83
2019-03-24T01:43:16.120Z,35.43
2019-03-24T01:45:44.572Z,35.80
2019-03-24T01:48:12.997Z,33.63
2019-03-24T01:50:43.044Z,35.20
2019-03-24T01:53:11.497Z,33.78
2019-03-24T01:55:39.935Z,31.60
2019-03-24T01:58:08.354Z,32.10
2019-03-24T02:00:36.785Z,34.80
2019-03-24T02:03:05.281Z,27.15
2019-03-24T02:05:33.749Z,39.45
2019-03-24T02:08:02.162Z,34.70
2019-03-24T02:10:30.602Z,29.57
2019-03-24T02:12:59.025Z,32.45
2019-03-24T02:15:27.488Z,32.78
2019-03-24T02:17:55.937Z,34.73
2019-03-24T02:20:24.381Z,23.87
2019-03-24T02:22:52.861Z,27.55
2019-03-24T02:25:21.309Z,36.23
2019-03-24T02:28:09.078Z,32.85
2019-03-24T02:30:37.510Z,33.53
2019-03-24T02:33:05.959Z,34.40
2019-03-24T02:35:34.394Z,30.17
2019-03-24T02:38:02.843Z,40.48
2019-03-24T02:40:31.269Z,36.13
2019-03-24T02:42:59.722Z,30.08
2019-03-24T02:45:28.136Z,37.45
2019-03-24T02:47:56.550Z,34.55
2019-03-24T02:50:25.029Z,36.33
2019-03-24T02:52:53.455Z,34.40
2019-03-24T02:55:21.897Z,31.48
2019-03-24T02:57:50.322Z,29.37
2019-03-24T03:00:19.111Z,28.95
2019-03-24T03:02:47.747Z,32.63
2019-03-24T03:05:16.247Z,40.45
2019-03-24T03:07:44.692Z,37.23
2019-03-24T03:10:13.567Z,34.53
2019-03-24T03:12:42.011Z,27.58
2019-03-24T03:15:11.584Z,33.88
2019-03-24T03:17:40.210Z,35.30
2019-03-24T03:20:09.222Z,38.50
2019-03-24T03:22:37.666Z,34.00
2019-03-24T03:25:07.755Z,35.28
2019-03-24T03:27:36.310Z,31.80
2019-03-24T03:30:07.899Z,39.38
2019-03-24T03:32:36.490Z,29.70
2019-03-24T03:35:07.472Z,30.32
2019-03-24T03:37:35.981Z,32.55
2019-03-24T03:40:06.867Z,30.85
2019-03-24T03:42:35.334Z,35.92
2019-03-24T03:45:04.893Z,34.63
2019-03-24T03:47:33.345Z,25.92
2019-03-24T03:50:01.885Z,25.75
2019-03-24T03:52:30.381Z,30.92
2019-03-24T03:54:58.819Z,32.15
2019-03-24T03:57:27.275Z,26.55
2019-03-24T03:59:55.779Z,24.07
2019-03-24T04:02:24.211Z,33.48
2019-03-24T04:04:52.658Z,25.88
2019-03-24T04:07:21.167Z,30.88
2019-03-24T04:09:49.597Z,25.10
2019-03-24T04:12:18.029Z,42.60
2019-03-24T04:14:46.472Z,80.05
2019-03-24T04:17:14.891Z,57.45
2019-03-24T04:19:43.342Z,55.80
2019-03-24T04:22:11.782Z,56.35
2019-03-24T04:24:40.346Z,39.42
2019-03-24T04:27:08.783Z,36.10
2019-03-24T04:29:37.235Z,27.82
2019-03-24T04:32:05.651Z,33.65
2019-03-24T04:34:34.079Z,27.55
2019-03-24T04:37:02.595Z,36.08
2019-03-24T04:39:31.041Z,32.05
2019-03-24T04:41:59.478Z,33.10
2019-03-24T04:44:28.486Z,29.05
2019-03-24T04:46:56.907Z,28.27
2019-03-24T04:49:25.325Z,25.57
2019-03-24T04:52:13.193Z,31.65
2019-03-24T04:54:41.631Z,27.90
2019-03-24T04:57:10.068Z,25.05
2019-03-24T04:59:38.481Z,31.05
2019-03-24T05:02:06.955Z,24.72
2019-03-24T05:04:35.392Z,18.65
2019-03-24T05:07:04.188Z,27.80
2019-03-24T05:09:32.636Z,24.20
2019-03-24T05:12:01.107Z,29.63
2019-03-24T05:14:29.553Z,32.85
2019-03-24T05:16:57.986Z,30.97
2019-03-24T05:19:26.469Z,29.55
2019-03-24T05:21:54.933Z,30.85
2019-03-24T05:24:23.374Z,28.10
2019-03-24T05:26:51.889Z,28.07
2019-03-24T05:29:20.658Z,27.40
2019-03-24T05:31:49.091Z,27.05
2019-03-24T05:34:17.571Z,31.33
2019-03-24T05:36:46.046Z,36.28
2019-03-24T05:39:14.497Z,29.65
2019-03-24T05:41:42.932Z,29.35
2019-03-24T05:44:11.374Z,29.67
2019-03-24T05:46:39.816Z,32.42
2019-03-24T05:49:09.774Z,35.28
2019-03-24T05:51:38.229Z,28.50
2019-03-24T05:54:06.668Z,26.80
2019-03-24T05:56:35.126Z,27.07
2019-03-24T05:59:03.606Z,23.75
2019-03-24T06:01:32.039Z,26.65
2019-03-24T06:04:00.476Z,25.60
2019-03-24T06:06:28.917Z,26.87
2019-03-24T06:08:57.349Z,27.65
2019-03-24T06:11:25.797Z,29.80
2019-03-24T06:13:54.218Z,25.17
2019-03-24T06:16:22.665Z,31.68
2019-03-24T06:18:51.104Z,28.77
2019-03-24T06:21:19.525Z,26.42
2019-03-24T06:23:47.953Z,26.05
2019-03-24T06:26:16.408Z,23.35
2019-03-24T06:28:44.822Z,26.10
2019-03-24T06:31:13.269Z,28.42
2019-03-24T06:33:41.714Z,31.10
2019-03-24T06:36:10.147Z,23.60
2019-03-24T06:38:38.591Z,30.23
2019-03-24T06:41:07.010Z,23.75
2019-03-24T06:43:35.441Z,26.50
2019-03-24T06:46:03.954Z,27.00
2019-03-24T06:48:32.391Z,32.30
2019-03-24T06:51:00.829Z,29.63
2019-03-24T06:53:29.263Z,31.45
2019-03-24T06:55:57.714Z,24.63
2019-03-24T06:58:26.142Z,24.98
2019-03-24T07:00:54.650Z,29.42
2019-03-24T07:03:42.417Z,29.98
2019-03-24T07:06:10.842Z,30.27
2019-03-24T07:08:39.296Z,40.60
2019-03-24T07:11:13.392Z,33.73
2019-03-24T07:13:37.897Z,33.48
2019-03-24T07:16:06.326Z,28.20
2019-03-24T07:18:34.750Z,29.00
2019-03-24T07:21:03.200Z,27.95
2019-03-24T07:23:31.625Z,34.08
2019-03-24T07:26:00.082Z,33.58
2019-03-24T07:28:28.513Z,38.30
2019-03-24T07:30:56.957Z,38.17
2019-03-24T07:33:25.388Z,32.58
2019-03-24T07:35:53.802Z,28.12
2019-03-24T07:38:22.234Z,29.63
2019-03-24T07:40:50.653Z,30.00
2019-03-24T07:43:19.081Z,33.92
2019-03-24T07:45:47.510Z,36.08
2019-03-24T07:48:19.413Z,35.33
2019-03-24T07:50:46.297Z,30.55
2019-03-24T07:53:14.732Z,38.02
2019-03-24T07:55:43.177Z,38.35
2019-03-24T07:58:11.612Z,34.08
2019-03-24T08:00:40.043Z,33.70
2019-03-24T08:03:08.485Z,29.40
2019-03-24T08:05:36.919Z,31.42
2019-03-24T08:08:05.337Z,35.05
2019-03-24T08:10:33.930Z,31.65
2019-03-24T08:13:02.365Z,38.23
2019-03-24T08:15:30.869Z,38.50
2019-03-24T08:17:59.304Z,35.58
2019-03-24T08:20:27.736Z,35.23
2019-03-24T08:22:56.159Z,28.98
2019-03-24T08:25:24.586Z,28.15
2019-03-24T08:27:53.024Z,27.73
2019-03-24T08:30:30.111Z,31.52
2019-03-24T08:32:58.537Z,36.45
2019-03-24T08:35:26.962Z,38.30
2019-03-24T08:37:55.389Z,33.92
2019-03-24T08:40:23.819Z,33.88
2019-03-24T08:42:52.259Z,37.30
2019-03-24T08:45:27.978Z,29.70
2019-03-24T08:47:58.257Z,35.70
2019-03-24T08:50:26.885Z,31.57
2019-03-24T08:52:55.438Z,29.95
2019-03-24T08:55:23.877Z,27.55
2019-03-24T08:57:52.309Z,28.12
2019-03-24T09:00:30.213Z,34.63
2019-03-24T09:02:50.906Z,22.77
2019-03-24T09:05:19.318Z,30.02
2019-03-24T09:07:47.750Z,30.80
2019-03-24T09:10:16.314Z,36.95
2019-03-24T09:12:44.754Z,37.00
2019-03-24T09:15:13.436Z,29.18
2019-03-24T09:17:41.984Z,30.82
2019-03-24T09:20:10.653Z,119.22
2019-03-24T09:22:39.088Z,41.13
2019-03-24T09:25:07.958Z,34.73
2019-03-24T09:27:36.473Z,29.80
2019-03-24T09:30:07.497Z,28.42
2019-03-24T09:32:35.945Z,37.73
2019-03-24T09:35:05.713Z,26.95
2019-03-24T09:37:34.141Z,32.40
2019-03-24T09:40:02.582Z,29.02
2019-03-24T09:42:31.024Z,27.85
2019-03-24T09:44:59.462Z,30.88
2019-03-24T09:47:27.904Z,29.05
2019-03-24T09:49:56.342Z,40.17
2019-03-24T09:52:24.781Z,33.00
2019-03-24T09:54:53.224Z,31.55
2019-03-24T09:57:21.667Z,31.82
2019-03-24T09:59:50.098Z,27.87
2019-03-24T10:02:18.520Z,59.60
2019-03-24T10:04:46.955Z,31.95
2019-03-24T10:07:15.391Z,29.00
2019-03-24T10:09:43.830Z,29.90
2019-03-24T10:12:12.255Z,33.98
2019-03-24T10:14:40.678Z,24.27
2019-03-24T10:17:09.118Z,29.10
2019-03-24T10:19:37.565Z,31.93
2019-03-24T10:22:06.000Z,30.35
2019-03-24T10:24:34.448Z,32.55
2019-03-24T10:27:02.896Z,87.88
2019-03-24T10:29:31.352Z,51.95
2019-03-24T10:31:59.770Z,28.57
2019-03-24T10:34:28.193Z,18.35
2019-03-24T10:36:56.631Z,22.20
2019-03-24T10:39:25.053Z,22.10
2019-03-24T10:41:53.504Z,35.10
2019-03-24T10:44:21.941Z,26.17
2019-03-24T10:46:50.365Z,24.98
2019-03-24T10:49:24.790Z,26.90
2019-03-24T10:51:49.055Z,21.05
2019-03-24T10:54:17.496Z,24.60
2019-03-24T10:56:45.944Z,21.87
2019-03-24T10:59:14.376Z,22.35
2019-03-24T11:01:42.869Z,24.37
2019-03-24T11:04:11.408Z,21.73
2019-03-24T11:06:39.901Z,21.57
2019-03-24T11:09:08.345Z,20.92
2019-03-24T11:11:36.773Z,17.05
2019-03-24T11:14:05.283Z,16.02
2019-03-24T11:16:33.704Z,21.27
2019-03-24T11:19:02.149Z,22.67
2019-03-24T11:21:30.696Z,17.52
2019-03-24T11:23:59.129Z,19.48
2019-03-24T11:26:27.576Z,22.42
2019-03-24T11:28:55.999Z,18.92
2019-03-24T11:31:24.481Z,21.50
2019-03-24T11:33:53.017Z,22.35
2019-03-24T11:36:21.449Z,23.32
2019-03-24T11:38:49.878Z,20.23
2019-03-24T11:41:18.325Z,17.55
2019-03-24T11:43:46.834Z,22.32
2019-03-24T11:46:15.276Z,18.80
2019-03-24T11:48:43.698Z,16.45
2019-03-24T11:51:12.125Z,18.62
2019-03-24T11:53:40.576Z,12.03
2019-03-24T11:56:09.012Z,18.73
2019-03-24T11:58:37.493Z,15.68
2019-03-24T12:01:05.966Z,15.03
2019-03-24T12:03:34.404Z,18.67
2019-03-24T12:06:13.634Z,19.73
2019-03-24T12:08:53.878Z,11.33
2019-03-24T12:11:22.322Z,14.78
2019-03-24T12:13:50.748Z,12.60
2019-03-24T12:16:19.202Z,17.85
2019-03-24T12:18:47.641Z,15.83
2019-03-24T12:21:16.075Z,14.87
2019-03-24T12:23:44.503Z,20.45
2019-03-24T12:26:13.022Z,16.67
2019-03-24T12:28:41.464Z,14.25
2019-03-24T12:31:09.904Z,15.83
2019-03-24T12:33:38.365Z,12.15
2019-03-24T12:36:06.781Z,14.68
2019-03-24T12:38:35.245Z,10.55
2019-03-24T12:41:03.692Z,12.80
2019-03-24T12:43:32.154Z,14.45
2019-03-24T12:46:00.590Z,18.80
2019-03-24T12:48:29.118Z,9.18
2019-03-24T12:50:57.741Z,12.28
2019-03-24T12:53:26.189Z,15.10
2019-03-24T12:55:54.673Z,12.60
2019-03-24T12:58:23.118Z,12.68
2019-03-24T13:00:51.554Z,17.32
2019-03-24T13:03:19.978Z,13.78
2019-03-24T13:05:48.434Z,10.72
2019-03-24T13:08:17.270Z,12.50
2019-03-24T13:10:46.725Z,10.60
2019-03-24T13:13:18.080Z,16.50
2019-03-24T13:15:46.710Z,11.65
2019-03-24T13:18:15.145Z,14.23
2019-03-24T13:20:43.666Z,14.65
2019-03-24T13:23:12.101Z,9.75
2019-03-24T13:25:40.544Z,13.43
2019-03-24T13:28:08.968Z,11.68
2019-03-24T13:30:37.424Z,12.45
2019-03-24T13:33:05.922Z,8.83
2019-03-24T13:35:35.244Z,11.25
2019-03-24T13:38:03.675Z,14.47
2019-03-24T13:40:32.145Z,13.20
2019-03-24T13:43:00.583Z,10.20
2019-03-24T13:45:29.078Z,18.42
2019-03-24T13:47:57.555Z,12.53
2019-03-24T13:50:31.445Z,9.88
2019-03-24T13:52:58.095Z,11.73
2019-03-24T13:55:32.531Z,10.68
2019-03-24T13:58:01.147Z,14.43
2019-03-24T14:00:29.589Z,10.35
2019-03-24T14:02:58.294Z,14.53
2019-03-24T14:05:26.709Z,9.50
2019-03-24T14:07:55.164Z,11.48
2019-03-24T14:10:23.666Z,11.68
2019-03-24T14:12:52.107Z,11.63
2019-03-24T14:15:20.580Z,15.30
2019-03-24T14:17:49.028Z,14.20
2019-03-24T14:20:17.797Z,12.10
2019-03-24T14:22:46.301Z,16.97
2019-03-24T14:25:14.796Z,17.65
2019-03-24T14:27:43.256Z,19.32
2019-03-24T14:30:21.749Z,15.63
2019-03-24T14:32:50.207Z,17.27
2019-03-24T14:35:18.656Z,15.10
2019-03-24T14:37:47.119Z,16.48
2019-03-24T14:40:17.167Z,16.15
2019-03-24T14:42:45.677Z,16.67
2019-03-24T14:45:14.261Z,16.35
2019-03-24T14:47:42.764Z,11.88
2019-03-24T14:50:11.726Z,12.90
2019-03-24T14:52:40.189Z,12.28
2019-03-24T14:55:08.781Z,15.75
2019-03-24T14:57:37.198Z,14.45
2019-03-24T15:00:07.659Z,15.70
2019-03-24T15:02:36.102Z,14.50
2019-03-24T15:05:07.105Z,14.95
2019-03-24T15:07:35.581Z,15.78
2019-03-24T15:10:06.462Z,13.65
2019-03-24T15:12:34.913Z,19.00
2019-03-24T15:15:03.921Z,15.53
2019-03-24T15:17:32.434Z,16.62
2019-03-24T15:20:00.894Z,16.02
2019-03-24T15:22:29.413Z,13.75
2019-03-24T15:24:57.834Z,13.40
2019-03-24T15:27:26.280Z,14.95
2019-03-24T15:29:54.742Z,21.07
2019-03-24T15:32:23.156Z,17.37
2019-03-24T15:34:51.617Z,19.70
2019-03-24T15:37:20.038Z,18.17
2019-03-24T15:39:48.496Z,18.65
2019-03-24T15:42:16.942Z,21.42
2019-03-24T15:44:45.385Z,19.15
2019-03-24T15:47:16.402Z,21.37
2019-03-24T15:49:44.918Z,16.32
2019-03-24T15:52:13.377Z,18.60
2019-03-24T15:54:41.806Z,22.87
2019-03-24T15:57:10.251Z,19.25
2019-03-24T15:59:38.686Z,26.00
2019-03-24T16:02:07.152Z,19.60
2019-03-24T16:04:35.656Z,25.43
2019-03-24T16:07:04.148Z,17.10
2019-03-24T16:09:32.784Z,24.23
2019-03-24T16:12:01.225Z,20.12
2019-03-24T16:14:29.652Z,21.30
2019-03-24T16:16:58.105Z,26.70
2019-03-24T16:19:26.528Z,23.80
2019-03-24T16:21:54.977Z,22.85
2019-03-24T16:24:23.398Z,24.47
2019-03-24T16:26:51.833Z,25.60
2019-03-24T16:29:21.933Z,16.73
2019-03-24T16:31:50.418Z,18.12
2019-03-24T16:34:18.880Z,17.75
2019-03-24T16:36:47.337Z,18.25
2019-03-24T16:39:15.850Z,17.15
2019-03-24T16:41:44.288Z,18.32
2019-03-24T16:44:12.773Z,26.90
2019-03-24T16:46:41.243Z,24.10
2019-03-24T16:49:09.670Z,20.23
2019-03-24T16:51:39.736Z,23.60
2019-03-24T16:54:08.289Z,19.75
2019-03-24T16:56:36.728Z,22.35
2019-03-24T16:59:05.230Z,18.87
2019-03-24T17:01:33.669Z,16.48
2019-03-24T17:04:02.102Z,19.00
2019-03-24T17:06:30.534Z,19.20
2019-03-24T17:08:58.979Z,23.73
2019-03-24T17:11:27.413Z,24.37
2019-03-24T17:13:55.882Z,24.67
2019-03-24T17:16:24.362Z,21.77
2019-03-24T17:18:52.822Z,26.10
2019-03-24T17:21:22.285Z,23.42
2019-03-24T17:23:50.712Z,18.73
2019-03-24T17:26:19.150Z,23.05
2019-03-24T17:28:47.580Z,17.73
2019-03-24T17:31:16.054Z,19.17
2019-03-24T17:33:44.494Z,24.52
2019-03-24T17:36:13.009Z,18.65
2019-03-24T17:38:41.448Z,18.95
2019-03-24T17:41:09.869Z,17.60
2019-03-24T17:43:38.321Z,20.90
2019-03-24T17:46:06.750Z,20.62
2019-03-24T17:48:35.209Z,16.67
2019-03-24T17:51:03.773Z,18.40
2019-03-24T17:53:32.214Z,23.07
2019-03-24T17:56:00.647Z,18.87
2019-03-24T17:58:29.067Z,16.05
2019-03-24T18:00:57.899Z,14.80
2019-03-24T18:03:26.321Z,18.30
2019-03-24T18:05:55.242Z,17.35
2019-03-24T18:08:23.689Z,13.20
2019-03-24T18:10:52.141Z,18.30
2019-03-24T18:13:20.584Z,19.90
2019-03-24T18:15:49.035Z,25.20
2019-03-24T18:18:17.484Z,21.10
2019-03-24T18:20:45.901Z,23.27
2019-03-24T18:23:14.342Z,17.98
2019-03-24T18:25:42.767Z,18.15
2019-03-24T18:28:11.194Z,15.90
2019-03-24T18:30:39.645Z,15.98
2019-03-24T18:33:08.677Z,16.32
2019-03-24T18:35:37.151Z,12.60
2019-03-24T18:38:05.860Z,14.93
2019-03-24T18:40:34.485Z,16.55
2019-03-24T18:43:02.916Z,16.62
2019-03-24T18:45:31.367Z,18.73
2019-03-24T18:47:59.803Z,15.03
2019-03-24T18:50:28.333Z,20.02
2019-03-24T18:52:56.752Z,17.30
2019-03-24T18:55:25.206Z,16.55
2019-03-24T18:57:53.643Z,14.10
2019-03-24T19:00:22.138Z,17.23
2019-03-24T19:02:50.580Z,17.65
2019-03-24T19:05:19.153Z,14.10
2019-03-24T19:07:47.586Z,16.07
2019-03-24T19:10:16.460Z,10.48
2019-03-24T19:12:44.886Z,13.65
2019-03-24T19:15:14.672Z,14.30
2019-03-24T19:17:43.095Z,14.63
2019-03-24T19:20:11.870Z,15.50
2019-03-24T19:22:40.361Z,21.85
2019-03-24T19:25:09.259Z,19.30
2019-03-24T19:27:37.674Z,18.25
2019-03-24T19:30:09.138Z,15.32
2019-03-24T19:32:37.653Z,18.73
2019-03-24T19:35:07.350Z,15.63
2019-03-24T19:37:36.657Z,17.57
2019-03-24T19:40:08.375Z,18.25
2019-03-24T19:42:36.816Z,19.20
2019-03-24T19:45:06.385Z,19.82
2019-03-24T19:47:34.821Z,20.50
2019-03-24T19:50:04.435Z,17.75
2019-03-24T19:52:32.868Z,15.45
2019-03-24T19:55:01.322Z,15.25
2019-03-24T19:57:29.756Z,15.85
2019-03-24T19:59:58.196Z,12.58
2019-03-24T20:02:26.660Z,11.53
2019-03-24T20:04:55.092Z,11.12
2019-03-24T20:07:23.579Z,12.35
2019-03-24T20:09:52.022Z,15.45
2019-03-24T20:12:20.443Z,14.85
2019-03-24T20:14:48.869Z,11.90
2019-03-24T20:17:17.317Z,13.62
2019-03-24T20:19:45.736Z,17.05
2019-03-24T20:22:14.184Z,11.38
2019-03-24T20:24:42.628Z,15.63
2019-03-24T20:27:11.143Z,10.98
2019-03-24T20:29:39.566Z,12.03
2019-03-24T20:32:08.067Z,14.83
2019-03-24T20:34:36.516Z,11.75
2019-03-24T20:37:05.021Z,9.63
2019-03-24T20:39:33.545Z,12.43
2019-03-24T20:42:02.057Z,13.60
2019-03-24T20:44:30.492Z,17.05
2019-03-24T20:46:58.925Z,12.13
2019-03-24T20:49:27.369Z,13.85
2019-03-24T20:51:55.812Z,10.00
2019-03-24T20:54:24.231Z,12.88
2019-03-24T20:56:52.689Z,14.35
2019-03-24T20:59:21.122Z,13.72
2019-03-24T21:01:49.538Z,12.23
2019-03-24T21:04:20.201Z,10.30
2019-03-24T21:06:48.132Z,13.68
2019-03-24T21:09:16.560Z,21.25
2019-03-24T21:11:44.991Z,13.85
2019-03-24T21:14:13.438Z,12.75
2019-03-24T21:16:41.859Z,13.45
2019-03-24T21:19:10.309Z,16.62
2019-03-24T21:21:38.733Z,14.65
2019-03-24T21:24:07.262Z,14.00
2019-03-24T21:26:35.704Z,14.83
2019-03-24T21:29:04.139Z,11.30
2019-03-24T21:31:32.584Z,12.65
2019-03-24T21:34:01.028Z,17.80
2019-03-24T21:36:29.477Z,16.37
2019-03-24T21:38:57.920Z,18.77
2019-03-24T21:41:26.340Z,19.35
2019-03-24T21:43:54.793Z,13.03
2019-03-24T21:46:23.223Z,11.00
2019-03-24T21:48:51.633Z,18.95
2019-03-24T21:51:20.101Z,12.15
2019-03-24T21:53:48.515Z,13.72
2019-03-24T21:56:16.950Z,15.30
2019-03-24T21:58:45.394Z,17.48
2019-03-24T22:01:13.809Z,15.23
2019-03-24T22:03:42.237Z,12.40
2019-03-24T22:06:10.660Z,17.02
2019-03-24T22:08:39.102Z,17.10
2019-03-24T22:11:07.617Z,19.05
2019-03-24T22:13:36.053Z,21.27
2019-03-24T22:16:04.479Z,20.80
2019-03-24T22:18:32.904Z,15.18
2019-03-24T22:21:01.367Z,17.57
2019-03-24T22:23:29.805Z,15.80
2019-03-24T22:25:58.243Z,14.47
2019-03-24T22:28:26.684Z,11.53
2019-03-24T22:30:55.117Z,13.58
2019-03-24T22:33:23.569Z,16.32
2019-03-24T22:35:51.987Z,15.40
2019-03-24T22:38:20.437Z,18.92
2019-03-24T22:40:48.853Z,13.72
2019-03-24T22:43:17.270Z,17.55
2019-03-24T22:45:45.693Z,21.15
2019-03-24T22:48:14.121Z,16.62
2019-03-24T22:50:42.569Z,17.23
2019-03-24T22:53:10.988Z,16.75
2019-03-24T22:55:39.425Z,14.87
2019-03-24T22:58:07.868Z,18.42
2019-03-24T23:00:43.941Z,17.02
2019-03-24T23:03:12.404Z,19.62
2019-03-24T23:05:40.889Z,21.97
2019-03-24T23:08:09.318Z,16.70
2019-03-24T23:10:37.764Z,10.75
2019-03-24T23:13:06.194Z,17.87
2019-03-24T23:15:34.618Z,17.45
2019-03-24T23:18:03.052Z,16.65
2019-03-24T23:20:31.478Z,12.90
2019-03-24T23:22:59.918Z,16.00
2019-03-24T23:25:28.350Z,17.27
2019-03-24T23:27:56.791Z,16.57
2019-03-24T23:30:25.218Z,15.30
2019-03-24T23:32:53.681Z,20.02
2019-03-24T23:35:22.110Z,17.45
2019-03-24T23:37:50.569Z,15.65
2019-03-24T23:40:18.982Z,14.65
2019-03-24T23:42:47.434Z,15.63
2019-03-24T23:45:15.938Z,12.23
2019-03-24T23:47:44.368Z,16.48
2019-03-24T23:50:12.954Z,13.65
2019-03-24T23:52:41.396Z,18.67
2019-03-24T23:55:11.418Z,16.07
2019-03-24T23:57:39.850Z,15.90
